createdAt,value
2016-09-15T06:02:28.808Z,1003.16
2016-09-15T06:03:27.818Z,1003.18
2016-09-15T06:04:27.942Z,1003.19
2016-09-15T06:05:27.542Z,1003.17
2016-09-15T06:06:27.986Z,1003.2
2016-09-15T06:07:27.927Z,1003.17
2016-09-15T06:08:27.840Z,1003.19
2016-09-15T06:09:27.864Z,1003.19
2016-09-15T06:10:27.619Z,1003.17
2016-09-15T06:11:27.814Z,1003.17
2016-09-15T06:12:27.775Z,1003.19
2016-09-15T06:13:27.819Z,1003.15
2016-09-15T06:14:28.002Z,1003.18
2016-09-15T06:15:28.254Z,1003.13
2016-09-15T06:16:27.841Z,1003.17
2016-09-15T06:17:27.941Z,1003.16
2016-09-15T06:18:27.845Z,1003.16
2016-09-15T06:19:28.001Z,1003.2
2016-09-15T06:20:27.863Z,1003.19
2016-09-15T06:21:28.106Z,1003.21
2016-09-15T06:22:28.248Z,1003.19
2016-09-15T06:23:28.132Z,1003.18
2016-09-15T06:24:28.141Z,1003.24
2016-09-15T06:25:28.963Z,1003.26
2016-09-15T06:26:28.981Z,1003.25
2016-09-15T06:27:28.072Z,1003.25
2016-09-15T06:28:28.264Z,1003.24
2016-09-15T06:29:28.645Z,1003.26
2016-09-15T06:30:28.632Z,1003.24
2016-09-15T06:31:28.104Z,1003.23
2016-09-15T06:32:28.638Z,1003.27
2016-09-15T06:33:28.259Z,1003.24
2016-09-15T06:34:28.743Z,1003.23
2016-09-15T06:35:28.632Z,1003.23
2016-09-15T06:36:28.238Z,1003.18
2016-09-15T06:37:28.388Z,1003.15
2016-09-15T06:38:28.215Z,1003.15
2016-09-15T06:39:28.473Z,1003.17
2016-09-15T06:40:28.971Z,1003.16
2016-09-15T06:41:28.588Z,1003.14
2016-09-15T06:42:28.362Z,1003.11
2016-09-15T06:43:28.393Z,1003.14
2016-09-15T06:44:29.140Z,1003.13
2016-09-15T06:45:29.177Z,1003.1
2016-09-15T06:46:28.724Z,1003.14
2016-09-15T06:47:29.164Z,1003.12
2016-09-15T06:48:29.810Z,1003.11
2016-09-15T06:49:28.927Z,1003.11
2016-09-15T06:50:29.122Z,1003.12
2016-09-15T06:51:29.085Z,1003.13
2016-09-15T06:52:28.809Z,1003.18
2016-09-15T06:53:28.852Z,1003.25
2016-09-15T06:54:28.567Z,1003.35
2016-09-15T06:55:29.080Z,1003.42
2016-09-15T06:56:29.113Z,1003.48
2016-09-15T06:57:29.321Z,1003.45
2016-09-15T06:58:29.241Z,1003.56
2016-09-15T06:59:28.988Z,1003.56
2016-09-15T07:00:29.545Z,1003.62
2016-09-15T07:01:29.225Z,1003.63
2016-09-15T07:02:29.365Z,1003.65
2016-09-15T07:03:29.173Z,1003.72
2016-09-15T07:04:29.023Z,1003.73
2016-09-15T07:05:28.892Z,1003.72
2016-09-15T07:06:29.122Z,1003.72
2016-09-15T07:07:29.078Z,1003.74
2016-09-15T07:08:28.981Z,1003.78
2016-09-15T07:09:29.257Z,1003.79
2016-09-15T07:10:29.952Z,1003.82
2016-09-15T07:11:29.276Z,1003.86
2016-09-15T07:12:29.408Z,1003.87
2016-09-15T07:13:29.545Z,1003.93
2016-09-15T07:14:29.849Z,1003.92
2016-09-15T07:15:29.368Z,1003.97
2016-09-15T07:16:29.519Z,1003.86
2016-09-15T07:17:29.248Z,1003.76
2016-09-15T07:18:29.906Z,1003.62
2016-09-15T07:19:29.446Z,1003.6
2016-09-15T07:20:30.350Z,1003.64
2016-09-15T07:21:30.464Z,1003.57
2016-09-15T07:22:29.733Z,1003.47
2016-09-15T07:23:29.572Z,1003.42
2016-09-15T07:24:30.162Z,1003.52
2016-09-15T07:25:29.564Z,1003.55
2016-09-15T07:26:30.290Z,1003.47
2016-09-15T07:27:29.592Z,1003.53
2016-09-15T07:28:29.877Z,1003.52
2016-09-15T07:29:29.870Z,1003.53
2016-09-15T07:30:29.734Z,1003.6
2016-09-15T07:31:30.013Z,1003.6
2016-09-15T07:32:30.039Z,1003.59
2016-09-15T07:33:29.607Z,1003.52
2016-09-15T07:34:30.052Z,1003.49
2016-09-15T07:35:30.448Z,1003.39
2016-09-15T07:36:29.945Z,1003.31
2016-09-15T07:37:30.034Z,1003.38
2016-09-15T07:38:30.176Z,1003.3
2016-09-15T07:39:29.973Z,1003.16
2016-09-15T07:40:30.704Z,1002.99
2016-09-15T07:41:30.015Z,1002.98
2016-09-15T07:42:30.237Z,1002.91
2016-09-15T07:43:30.406Z,1002.95
2016-09-15T07:44:30.062Z,1002.94
2016-09-15T07:45:30.342Z,1002.92
2016-09-15T07:46:30.892Z,1002.91
2016-09-15T07:47:30.611Z,1002.92
2016-09-15T07:48:30.503Z,1002.98
2016-09-15T07:49:30.225Z,1002.93
2016-09-15T07:50:30.462Z,1002.91
2016-09-15T07:51:30.616Z,1002.92
2016-09-15T07:52:30.457Z,1002.88
2016-09-15T07:53:31.068Z,1002.92
2016-09-15T07:54:31.229Z,1002.92
2016-09-15T07:55:31.446Z,1002.89
2016-09-15T07:56:30.417Z,1002.88
2016-09-15T07:57:31.294Z,1002.85
2016-09-15T07:58:30.575Z,1002.89
2016-09-15T07:59:30.657Z,1002.87
2016-09-15T08:00:31.337Z,1002.86
2016-09-15T08:01:30.715Z,1002.86
2016-09-15T08:02:30.893Z,1002.89
2016-09-15T08:03:31.112Z,1002.85
2016-09-15T08:04:31.105Z,1002.85
2016-09-15T08:05:30.937Z,1002.86
2016-09-15T08:45:53.696Z,1003.13
2016-09-15T08:46:53.997Z,1003.06
2016-09-15T08:47:53.873Z,1003.06
2016-09-15T08:48:54.690Z,1003.1
2016-09-15T08:49:53.881Z,1003.06
2016-09-15T08:50:53.862Z,1003.02
2016-09-15T08:51:53.645Z,1003.06
2016-09-15T08:52:53.783Z,1003.05
2016-09-15T08:53:54.011Z,1003.06
2016-09-15T08:54:53.927Z,1002.95
2016-09-15T08:55:54.098Z,1003
2016-09-15T08:56:55.224Z,1003.02
2016-09-15T08:57:54.529Z,1003.04
2016-09-15T08:58:54.513Z,1003.02
2016-09-15T08:59:53.992Z,1003.03
2016-09-15T09:00:54.006Z,1003.06
2016-09-15T09:01:54.684Z,1003
2016-09-15T09:02:53.913Z,1002.99
2016-09-15T09:03:53.903Z,1002.99
2016-09-15T09:04:54.355Z,1002.97
2016-09-15T09:05:54.117Z,1003.04
2016-09-15T09:06:54.251Z,1002.98
2016-09-15T09:07:54.176Z,1003
2016-09-15T09:08:54.646Z,1002.96
2016-09-15T09:09:54.868Z,1002.98
2016-09-15T09:10:54.221Z,1002.98
2016-09-15T09:11:54.981Z,1002.99
2016-09-15T09:12:54.949Z,1002.96
2016-09-15T09:13:54.651Z,1002.94
2016-09-15T09:14:54.623Z,1002.91
2016-09-15T09:15:54.470Z,1002.89
2016-09-15T09:16:54.783Z,1002.84
2016-09-15T09:17:55.148Z,1002.84
2016-09-15T09:18:54.729Z,1002.8
2016-09-15T09:19:55.434Z,1002.78
2016-09-15T09:20:54.691Z,1002.87
2016-09-15T09:21:54.875Z,1002.79
2016-09-15T09:22:55.337Z,1002.78
2016-09-15T09:23:54.992Z,1002.79
2016-09-15T09:24:55.319Z,1002.77
2016-09-15T09:25:55.183Z,1002.71
2016-09-15T09:26:55.141Z,1002.68
2016-09-15T09:27:55.066Z,1002.72
2016-09-15T09:28:55.276Z,1002.71
2016-09-15T09:29:55.053Z,1002.71
2016-09-15T09:30:55.654Z,1002.69
2016-09-15T09:31:55.041Z,1002.66
2016-09-15T09:32:55.829Z,1002.7
2016-09-15T09:33:55.009Z,1002.68
2016-09-15T09:34:54.983Z,1002.67
2016-09-15T09:35:55.899Z,1002.65
2016-09-15T09:36:55.122Z,1002.64
2016-09-15T09:37:54.903Z,1002.64
2016-09-15T09:38:56.126Z,1002.65
2016-09-15T09:39:55.214Z,1002.69
2016-09-15T09:40:55.497Z,1002.71
2016-09-15T09:41:55.439Z,1002.63
2016-09-15T09:42:55.330Z,1002.61
2016-09-15T09:43:55.469Z,1002.63
2016-09-15T09:44:55.421Z,1002.61
2016-09-15T09:45:56.282Z,1002.64
2016-09-15T09:46:55.928Z,1002.57
2016-09-15T09:47:55.723Z,1002.59
2016-09-15T09:48:55.832Z,1002.58
2016-09-15T09:49:55.446Z,1002.57
2016-09-15T09:50:56.451Z,1002.56
2016-09-15T09:51:56.314Z,1002.57
2016-09-15T09:52:55.926Z,1002.6
2016-09-15T09:53:55.669Z,1002.56
2016-09-15T09:54:55.745Z,1002.47
2016-09-15T09:55:55.447Z,1002.51
2016-09-15T09:56:56.153Z,1002.46
2016-09-15T09:57:56.516Z,1002.49
2016-09-15T09:58:56.055Z,1002.45
2016-09-15T09:59:55.612Z,1002.47
2016-09-15T10:00:56.489Z,1002.4
2016-09-15T10:01:55.810Z,1002.43
2016-09-15T10:02:55.829Z,1002.43
2016-09-15T10:03:55.927Z,1002.38
2016-09-15T10:04:56.170Z,1002.41
2016-09-15T10:05:56.140Z,1002.41
2016-09-15T10:06:56.259Z,1002.41
2016-09-15T10:07:56.473Z,1002.42
2016-09-15T10:08:56.246Z,1002.36
2016-09-15T10:09:56.219Z,1002.4
2016-09-15T10:10:55.906Z,1002.43
2016-09-15T10:11:56.203Z,1002.34
2016-09-15T10:12:55.917Z,1002.37
2016-09-15T10:13:56.268Z,1002.33
2016-09-15T10:14:56.236Z,1002.35
2016-09-15T10:15:56.264Z,1002.32
2016-09-15T10:16:56.593Z,1002.39
2016-09-15T10:17:56.564Z,1002.38
2016-09-15T10:18:56.259Z,1002.4
2016-09-15T10:19:56.691Z,1002.4
2016-09-15T10:20:56.390Z,1002.39
2016-09-15T10:21:56.687Z,1002.34
2016-09-15T10:22:56.340Z,1002.33
2016-09-15T10:23:56.224Z,1002.3
2016-09-15T10:24:56.501Z,1002.3
2016-09-15T10:25:56.920Z,1002.33
2016-09-15T10:26:56.742Z,1002.28
2016-09-15T10:27:56.496Z,1002.3
2016-09-15T10:28:56.600Z,1002.26
2016-09-15T10:29:56.784Z,1002.25
2016-09-15T10:30:56.919Z,1002.26
2016-09-15T10:31:56.961Z,1002.24
2016-09-15T10:32:56.981Z,1002.24
2016-09-15T10:33:56.835Z,1002.21
2016-09-15T10:34:56.968Z,1002.21
2016-09-15T10:35:57.064Z,1002.16
2016-09-15T10:36:57.144Z,1002.2
2016-09-15T10:37:56.920Z,1002.22
2016-09-15T10:38:57.041Z,1002.15
2016-09-15T10:39:57.628Z,1002.21
2016-09-15T10:40:56.869Z,1002.14
2016-09-15T10:41:56.986Z,1002.1
2016-09-15T10:42:57.154Z,1002.12
2016-09-15T10:43:58.257Z,1002.02
2016-09-15T10:44:57.254Z,1002.1
2016-09-15T10:45:57.080Z,1002.14
2016-09-15T10:46:57.557Z,1002.07
2016-09-15T10:47:57.203Z,1002.09
2016-09-15T10:48:57.254Z,1002.03
2016-09-15T10:49:57.367Z,1002.02
2016-09-15T10:50:57.437Z,1002.03
2016-09-15T10:51:57.437Z,1002.04
2016-09-15T10:52:57.576Z,1002.02
2016-09-15T10:53:57.943Z,1002.03
2016-09-15T10:54:58.323Z,1002.02
2016-09-15T10:55:57.919Z,1002.05
2016-09-15T10:56:58.000Z,1002.02
2016-09-15T10:57:58.570Z,1001.99
2016-09-15T10:58:57.904Z,1001.98
2016-09-15T10:59:57.685Z,1002.01
2016-09-15T11:00:57.758Z,1002.01
2016-09-15T11:01:57.901Z,1001.96
2016-09-15T11:02:58.237Z,1001.99
2016-09-15T11:03:58.125Z,1001.96
2016-09-15T11:04:57.809Z,1001.89
2016-09-15T11:05:58.164Z,1001.92
2016-09-15T11:06:58.062Z,1001.92
2016-09-15T11:07:57.920Z,1001.92
2016-09-15T11:08:57.770Z,1001.78
2016-09-15T11:09:59.627Z,1001.78
2016-09-15T11:10:57.781Z,1001.77
2016-09-15T11:11:57.995Z,1001.82
2016-09-15T11:12:58.464Z,1001.81
2016-09-15T11:13:58.038Z,1001.78
2016-09-15T11:14:58.103Z,1001.84
2016-09-15T11:15:58.650Z,1001.73
2016-09-15T11:16:58.301Z,1001.73
2016-09-15T11:17:58.492Z,1001.71
2016-09-15T11:18:58.819Z,1001.7
2016-09-15T11:19:58.189Z,1001.68
2016-09-15T11:20:58.386Z,1001.67
2016-09-15T11:21:58.199Z,1001.73
2016-09-15T11:22:58.694Z,1001.73
2016-09-15T11:23:58.604Z,1001.74
2016-09-15T11:24:59.083Z,1001.77
2016-09-15T11:25:58.918Z,1001.81
2016-09-15T11:26:58.757Z,1001.78
2016-09-15T11:27:58.450Z,1001.76
2016-09-15T11:28:58.588Z,1001.78
2016-09-15T11:29:58.717Z,1001.69
2016-09-15T11:30:58.612Z,1001.66
2016-09-15T11:31:58.902Z,1001.69
2016-09-15T11:32:59.395Z,1001.69
2016-09-15T11:33:59.704Z,1001.73
2016-09-15T11:34:59.514Z,1001.68
2016-09-15T11:35:58.774Z,1001.71
2016-09-15T11:36:58.885Z,1001.73
2016-09-15T11:37:59.134Z,1001.73
2016-09-15T11:38:59.039Z,1001.7
2016-09-15T11:39:59.143Z,1001.71
2016-09-15T11:40:58.850Z,1001.68
2016-09-15T11:41:59.550Z,1001.7
2016-09-15T11:42:58.996Z,1001.67
2016-09-15T11:43:58.977Z,1001.7
2016-09-15T11:44:59.191Z,1001.71
2016-09-15T11:45:59.326Z,1001.72
2016-09-15T11:46:59.521Z,1001.81
2016-09-15T11:47:59.517Z,1001.65
2016-09-15T11:48:59.330Z,1001.64
2016-09-15T11:49:59.730Z,1001.67
2016-09-15T11:50:59.478Z,1001.59
2016-09-15T11:51:59.761Z,1001.71
2016-09-15T11:52:59.771Z,1001.7
2016-09-15T11:53:59.639Z,1001.63
2016-09-15T11:54:59.544Z,1001.66
2016-09-15T11:55:59.645Z,1001.53
2016-09-15T11:56:59.605Z,1001.59
2016-09-15T11:57:59.756Z,1001.62
2016-09-15T11:58:59.392Z,1001.6
2016-09-15T12:00:00.395Z,1001.56
2016-09-15T12:00:59.903Z,1001.54
2016-09-15T12:01:59.740Z,1001.61
2016-09-15T12:03:00.206Z,1001.56
2016-09-15T12:04:00.556Z,1001.54
2016-09-15T12:04:59.894Z,1001.58
2016-09-15T12:06:00.620Z,1001.6
2016-09-15T12:07:00.762Z,1001.58
2016-09-15T12:08:00.906Z,1001.55
2016-09-15T12:08:59.817Z,1001.56
2016-09-15T12:10:00.270Z,1001.52
2016-09-15T12:11:01.226Z,1001.56
2016-09-15T12:12:00.848Z,1001.5
2016-09-15T12:13:00.990Z,1001.55
2016-09-15T12:14:00.590Z,1001.51
2016-09-15T12:15:00.649Z,1001.54
2016-09-15T12:16:00.785Z,1001.52
2016-09-15T12:17:00.831Z,1001.54
2016-09-15T12:18:00.738Z,1001.55
2016-09-15T12:19:00.886Z,1001.54
2016-09-15T12:20:01.224Z,1001.56
2016-09-15T12:21:00.525Z,1001.48
2016-09-15T12:22:00.682Z,1001.46
2016-09-15T12:23:00.590Z,1001.49
2016-09-15T12:24:00.889Z,1001.45
2016-09-15T12:25:00.728Z,1001.36
2016-09-15T12:26:00.656Z,1001.43
2016-09-15T12:27:00.802Z,1001.41
2016-09-15T12:28:01.233Z,1001.39
2016-09-15T12:29:00.695Z,1001.4
2016-09-15T12:30:00.606Z,1001.33
2016-09-15T12:31:00.645Z,1001.34
2016-09-15T12:32:00.861Z,1001.32
2016-09-15T12:33:00.921Z,1001.36
2016-09-15T12:34:01.313Z,1001.23
2016-09-15T12:35:00.836Z,1001.32
2016-09-15T12:36:01.274Z,1001.26
2016-09-15T12:37:01.588Z,1001.26
2016-09-15T12:38:00.824Z,1001.23
2016-09-15T12:39:00.780Z,1001.3
2016-09-15T12:40:00.869Z,1001.21
2016-09-15T12:41:01.313Z,1001.19
2016-09-15T12:42:00.974Z,1001.15
2016-09-15T12:43:01.438Z,1001.14
2016-09-15T12:44:01.340Z,1001.21
2016-09-15T12:45:01.264Z,1001.14
2016-09-15T12:46:01.454Z,1001.18
2016-09-15T12:47:01.060Z,1001.15
2016-09-15T12:48:01.490Z,1001.06
2016-09-15T12:49:01.267Z,1001.11
2016-09-15T12:50:01.173Z,1001.06
2016-09-15T12:51:01.383Z,1001.1
2016-09-15T12:52:01.420Z,1001.11
2016-09-15T12:53:01.763Z,1001.11
2016-09-15T12:54:01.742Z,1001.05
2016-09-15T12:55:01.570Z,1001.06
2016-09-15T12:56:01.762Z,1001.01
2016-09-15T12:57:01.578Z,1001.07
2016-09-15T12:58:01.790Z,1001
2016-09-15T12:59:01.907Z,1000.96
2016-09-15T13:00:01.958Z,1000.98
2016-09-15T13:01:02.096Z,1001.04
2016-09-15T13:02:02.096Z,1001.03
2016-09-15T13:03:01.737Z,1000.98
2016-09-15T13:04:02.077Z,1000.98
2016-09-15T13:05:02.105Z,1000.98
2016-09-15T13:06:01.723Z,1000.99
2016-09-15T13:07:02.064Z,1000.91
2016-09-15T13:08:02.037Z,1000.88
2016-09-15T13:09:02.181Z,1000.9
2016-09-15T13:10:01.959Z,1000.89
2016-09-15T13:11:01.968Z,1000.94
2016-09-15T13:12:01.933Z,1000.9
2016-09-15T13:13:02.169Z,1000.84
2016-09-15T13:14:03.168Z,1000.82
2016-09-15T13:15:02.523Z,1000.86
2016-09-15T13:16:02.585Z,1000.75
2016-09-15T13:17:02.221Z,1000.71
2016-09-15T13:18:02.675Z,1000.79
2016-09-15T13:19:02.554Z,1000.8
2016-09-15T13:20:02.525Z,1000.82
2016-09-15T13:21:02.395Z,1000.77
2016-09-15T13:22:02.529Z,1000.79
2016-09-15T13:23:02.578Z,1000.71
2016-09-15T13:24:03.081Z,1000.75
2016-09-15T13:25:03.095Z,1000.7
2016-09-15T13:26:02.780Z,1000.69
2016-09-15T13:27:03.051Z,1000.68
2016-09-15T13:28:02.532Z,1000.69
2016-09-15T13:29:02.559Z,1000.64
2016-09-15T13:30:02.659Z,1000.58
2016-09-15T13:31:02.431Z,1000.61
2016-09-15T13:32:02.538Z,1000.61
2016-09-15T13:33:02.785Z,1000.57
2016-09-15T13:34:03.176Z,1000.54
2016-09-15T13:35:02.933Z,1000.56
2016-09-15T13:36:02.974Z,1000.51
2016-09-15T13:37:02.985Z,1000.55
2016-09-15T13:38:03.412Z,1000.61
2016-09-15T13:39:03.344Z,1000.63
2016-09-15T13:40:03.185Z,1000.67
2016-09-15T13:41:03.955Z,1000.64
2016-09-15T13:42:02.864Z,1000.65
2016-09-15T13:43:03.169Z,1000.61
2016-09-15T13:44:03.454Z,1000.62
2016-09-15T13:45:03.086Z,1000.62
2016-09-15T13:46:03.355Z,1000.6
2016-09-15T13:47:03.071Z,1000.61
2016-09-15T13:48:03.730Z,1000.5
2016-09-15T13:49:03.251Z,1000.57
2016-09-15T13:50:03.134Z,1000.57
2016-09-15T13:51:04.750Z,1000.53
2016-09-15T13:52:03.462Z,1000.59
2016-09-15T13:53:04.121Z,1000.58
2016-09-15T13:54:03.497Z,1000.63
2016-09-15T13:55:04.430Z,1000.56
2016-09-15T13:56:03.745Z,1000.63
2016-09-15T13:57:03.302Z,1000.63
2016-09-15T13:58:03.665Z,1000.56
2016-09-15T13:59:04.417Z,1000.58
2016-09-15T14:00:03.885Z,1000.57
2016-09-15T14:01:03.749Z,1000.55
2016-09-15T14:02:03.596Z,1000.57
2016-09-15T14:03:04.073Z,1000.57
2016-09-15T14:04:04.085Z,1000.57
2016-09-15T14:05:03.921Z,1000.58
2016-09-15T14:06:03.873Z,1000.59
2016-09-15T14:07:03.725Z,1000.52
2016-09-15T14:08:04.205Z,1000.52
2016-09-15T14:09:05.270Z,1000.51
2016-09-15T14:10:04.370Z,1000.52
2016-09-15T14:11:04.179Z,1000.52
2016-09-15T14:12:04.335Z,1000.47
2016-09-15T14:13:04.441Z,1000.45
2016-09-15T14:14:04.403Z,1000.46
2016-09-15T14:15:04.731Z,1000.45
2016-09-15T14:16:04.307Z,1000.42
2016-09-15T14:17:04.391Z,1000.41
2016-09-15T14:18:04.527Z,1000.41
2016-09-15T14:19:04.171Z,1000.48
2016-09-15T14:20:04.647Z,1000.46
2016-09-15T14:21:04.451Z,1000.41
2016-09-15T14:22:04.542Z,1000.4
2016-09-15T14:23:04.486Z,1000.42
2016-09-15T14:24:05.986Z,1000.39
2016-09-15T14:25:05.044Z,1000.36
2016-09-15T14:26:05.141Z,1000.41
2016-09-15T14:27:05.139Z,1000.4
2016-09-15T14:28:05.560Z,1000.4
2016-09-15T14:29:04.737Z,1000.4
2016-09-15T14:30:05.107Z,1000.36
2016-09-15T14:31:04.775Z,1000.37
2016-09-15T14:32:05.238Z,1000.4
2016-09-15T14:33:04.764Z,1000.4
2016-09-15T14:34:05.127Z,1000.41
2016-09-15T14:35:04.875Z,1000.36
2016-09-15T14:36:05.498Z,1000.35
2016-09-15T14:37:05.982Z,1000.34
2016-09-15T14:38:05.059Z,1000.33
2016-09-15T14:39:04.905Z,1000.3
2016-09-15T14:40:05.687Z,1000.32
2016-09-15T14:41:05.293Z,1000.32
2016-09-15T14:42:05.451Z,1000.29
2016-09-15T14:43:05.272Z,1000.28
2016-09-15T14:44:05.708Z,1000.28
2016-09-15T14:45:05.116Z,1000.27
2016-09-15T14:46:05.730Z,1000.24
2016-09-15T14:47:05.348Z,1000.27
2016-09-15T14:48:05.587Z,1000.25
2016-09-15T14:49:05.218Z,1000.2
2016-09-15T14:50:05.772Z,1000.24
2016-09-15T14:51:05.254Z,1000.24
2016-09-15T14:52:05.264Z,1000.21
2016-09-15T14:53:05.416Z,1000.21
2016-09-15T14:54:06.280Z,1000.25
2016-09-15T14:55:05.795Z,1000.32
2016-09-15T14:56:05.732Z,1000.32
2016-09-15T14:57:06.136Z,1000.3
2016-09-15T14:58:05.993Z,1000.29
2016-09-15T14:59:06.672Z,1000.26
2016-09-15T15:00:05.665Z,1000.3
2016-09-15T15:01:06.133Z,1000.26
2016-09-15T15:02:06.519Z,1000.21
2016-09-15T15:03:06.121Z,1000.17
2016-09-15T15:04:06.103Z,1000.13
2016-09-15T15:05:06.238Z,1000.2
2016-09-15T15:06:06.186Z,1000.19
2016-09-15T15:07:07.294Z,1000.22
2016-09-15T15:08:06.610Z,1000.21
2016-09-15T15:09:06.087Z,1000.22
2016-09-15T15:10:06.804Z,1000.21
2016-09-15T15:11:06.085Z,1000.19
2016-09-15T15:12:06.775Z,1000.16
2016-09-15T15:13:06.747Z,1000.14
2016-09-15T15:14:06.572Z,1000.13
2016-09-15T15:15:06.578Z,1000.11
2016-09-15T15:16:06.313Z,1000.12
2016-09-15T15:17:06.397Z,1000.09
2016-09-15T15:18:06.615Z,1000.08
2016-09-15T15:19:06.661Z,1000.07
2016-09-15T15:20:06.381Z,1000.09
2016-09-15T15:21:06.603Z,1000.05
2016-09-15T15:22:06.821Z,1000.05
2016-09-15T15:23:06.760Z,1000.02
2016-09-15T15:24:07.101Z,999.99
2016-09-15T15:25:06.400Z,1000.06
2016-09-15T15:26:06.894Z,1000.03
2016-09-15T15:27:06.965Z,1000.02
2016-09-15T15:28:06.717Z,1000.05
2016-09-15T15:29:07.118Z,1000.05
2016-09-15T15:30:06.799Z,1000.03
2016-09-15T15:31:07.041Z,1000.01
2016-09-15T15:32:07.314Z,1000.02
2016-09-15T15:33:07.220Z,999.99
2016-09-15T15:34:07.098Z,999.99
2016-09-15T15:35:07.003Z,1000.06
2016-09-15T15:36:07.226Z,1000
2016-09-15T15:37:07.600Z,1000.02
2016-09-15T15:38:07.310Z,1000.01
2016-09-15T15:39:08.062Z,999.99
2016-09-15T15:40:07.711Z,999.99
2016-09-15T15:41:07.582Z,1000.01
2016-09-15T15:42:07.935Z,1000.01
2016-09-15T15:43:07.055Z,1000.01
2016-09-15T15:44:07.467Z,999.99
2016-09-15T15:45:07.111Z,1000.01
2016-09-15T15:46:07.344Z,1000.03
2016-09-15T15:47:08.265Z,1000.05
2016-09-15T15:48:07.277Z,1000.09
2016-09-15T15:49:07.371Z,1000.08
2016-09-15T15:50:07.503Z,1000.05
2016-09-15T15:51:07.952Z,1000.06
2016-09-15T15:52:07.756Z,1000.05
2016-09-15T15:53:07.801Z,1000.05
2016-09-15T15:54:08.223Z,1000.07
2016-09-15T15:55:07.304Z,1000.07
2016-09-15T15:56:07.275Z,1000.08
2016-09-15T15:57:07.523Z,1000.1
2016-09-15T15:58:07.913Z,1000.13
2016-09-15T15:59:07.769Z,1000.13
2016-09-15T16:00:07.819Z,1000.11
2016-09-15T16:01:08.592Z,1000.16
2016-09-15T16:02:07.939Z,1000.12
2016-09-15T16:03:07.888Z,1000.18
2016-09-15T16:04:07.687Z,1000.19
2016-09-15T16:05:07.877Z,1000.17
2016-09-15T16:06:08.440Z,1000.18
2016-09-15T16:07:07.874Z,1000.16
2016-09-15T16:08:08.236Z,1000.17
2016-09-15T16:09:38.739Z,1000.19
2016-09-15T16:10:38.330Z,1000.15
2016-09-15T16:11:38.597Z,1000.2
2016-09-15T16:12:38.542Z,1000.1
2016-09-15T16:13:38.612Z,1000.16
2016-09-15T16:14:38.925Z,1000.16
2016-09-15T16:15:38.932Z,1000.17
2016-09-15T16:16:39.208Z,1000.13
2016-09-15T16:17:39.213Z,1000.11
2016-09-15T16:18:38.975Z,1000.18
2016-09-15T16:19:39.723Z,1000.18
2016-09-15T16:20:38.770Z,1000.16
2016-09-15T16:21:38.498Z,1000.14
2016-09-15T16:22:38.642Z,1000.16
2016-09-15T16:23:39.094Z,1000.16
2016-09-15T16:24:39.369Z,1000.12
2016-09-15T16:25:39.441Z,1000.13
2016-09-15T16:26:39.441Z,1000.1
2016-09-15T16:27:39.440Z,1000.1
2016-09-15T16:28:39.393Z,1000.14
2016-09-15T16:29:39.254Z,1000.12
2016-09-15T16:30:38.952Z,1000.14
2016-09-15T16:31:39.231Z,1000.14
2016-09-15T16:32:39.649Z,1000.13
2016-09-15T16:33:39.454Z,1000.15
2016-09-15T16:34:39.816Z,1000.15
2016-09-15T16:35:39.591Z,1000.13
2016-09-15T16:36:39.334Z,1000.12
2016-09-15T16:37:39.885Z,1000.09
2016-09-15T16:38:39.932Z,1000.08
2016-09-15T16:39:39.278Z,1000.1
2016-09-15T16:40:39.720Z,1000.15
2016-09-15T16:41:40.269Z,1000.13
2016-09-15T16:42:39.552Z,1000.14
2016-09-15T16:43:39.504Z,1000.08
2016-09-15T16:44:39.808Z,1000.14
2016-09-15T16:45:39.619Z,1000.11
2016-09-15T16:46:39.573Z,1000.12
2016-09-15T16:47:39.806Z,1000.1
2016-09-15T16:48:39.953Z,1000.11
2016-09-15T16:49:39.746Z,1000.15
2016-09-15T16:50:39.561Z,1000.16
2016-09-15T16:51:40.656Z,1000.14
2016-09-15T16:52:39.835Z,1000.11
2016-09-15T16:53:39.668Z,1000.09
2016-09-15T16:54:39.742Z,1000.08
2016-09-15T16:55:40.020Z,1000.09
2016-09-15T16:56:40.737Z,1000.11
2016-09-15T16:57:39.888Z,1000.07
2016-09-15T16:58:39.739Z,1000.05
2016-09-15T16:59:39.711Z,1000.08
2016-09-15T17:00:39.750Z,1000.02
2016-09-15T17:01:39.731Z,1000.03
2016-09-15T17:02:39.980Z,1000.06
2016-09-15T17:03:40.033Z,1000.06
2016-09-15T17:04:40.180Z,1000.08
2016-09-15T17:05:40.120Z,1000.06
2016-09-15T17:06:40.172Z,1000.08
2016-09-15T17:07:40.293Z,1000.1
2016-09-15T17:08:40.651Z,1000.07
2016-09-15T17:09:40.032Z,1000.08
2016-09-15T17:10:40.336Z,1000.09
2016-09-15T17:11:41.014Z,1000.07
2016-09-15T17:12:40.745Z,1000.09
2016-09-15T17:13:40.329Z,1000.09
2016-09-15T17:14:40.418Z,1000.06
2016-09-15T17:15:40.337Z,1000.09
2016-09-15T17:16:40.816Z,1000.06
2016-09-15T17:17:40.377Z,1000.07
2016-09-15T17:18:40.363Z,1000.07
2016-09-15T17:19:40.457Z,1000.08
2016-09-15T17:20:41.264Z,1000.1
2016-09-15T17:21:40.667Z,1000.08
2016-09-15T17:22:40.583Z,1000.07
2016-09-15T17:23:40.487Z,1000.08
2016-09-15T17:24:40.895Z,1000.06
2016-09-15T17:25:40.877Z,1000.1
2016-09-15T17:26:40.672Z,1000.11
2016-09-15T17:27:40.652Z,1000.14
2016-09-15T17:28:40.550Z,1000.1
2016-09-15T17:29:40.659Z,1000.11
2016-09-15T17:30:40.644Z,1000.1
2016-09-15T17:31:40.836Z,1000.08
2016-09-15T17:32:41.101Z,1000.09
2016-09-15T17:33:40.722Z,1000.09
2016-09-15T17:34:41.142Z,1000.05
2016-09-15T17:35:41.379Z,1000.04
2016-09-15T17:36:41.154Z,1000.03
2016-09-15T17:37:41.421Z,1000.02
2016-09-15T17:38:42.166Z,1000.05
2016-09-15T17:39:40.870Z,1000.01
2016-09-15T17:40:40.889Z,1000.02
2016-09-15T17:41:41.445Z,1000.02
2016-09-15T17:42:41.789Z,1000.05
2016-09-15T17:43:41.311Z,1000.04
2016-09-15T17:44:41.350Z,1000.04
2016-09-15T17:45:41.135Z,1000.05
2016-09-15T17:46:41.190Z,1000.08
2016-09-15T17:47:41.258Z,1000.05
2016-09-15T17:48:41.640Z,1000.09
2016-09-15T17:49:41.697Z,1000.11
2016-09-15T17:50:41.210Z,1000.12
2016-09-15T17:51:41.364Z,1000.12
2016-09-15T17:52:41.111Z,1000.13
2016-09-15T17:53:41.589Z,1000.17
2016-09-15T17:54:41.474Z,1000.18
2016-09-15T17:55:41.581Z,1000.13
2016-09-15T17:56:41.204Z,1000.14
2016-09-15T17:57:41.827Z,1000.21
2016-09-15T17:58:41.747Z,1000.21
2016-09-15T17:59:41.518Z,1000.23
2016-09-15T18:00:41.784Z,1000.22
2016-09-15T18:01:41.351Z,1000.24
2016-09-15T18:02:41.840Z,1000.26
2016-09-15T18:03:41.892Z,1000.24
2016-09-15T18:04:41.575Z,1000.25
2016-09-15T18:05:42.102Z,1000.31
2016-09-15T18:06:41.506Z,1000.3
2016-09-15T18:07:41.845Z,1000.34
2016-09-15T18:08:42.110Z,1000.32
2016-09-15T18:09:41.898Z,1000.34
2016-09-15T18:10:41.698Z,1000.33
2016-09-15T18:11:42.379Z,1000.38
2016-09-15T18:12:42.038Z,1000.4
2016-09-15T18:13:41.699Z,1000.4
2016-09-15T18:14:41.671Z,1000.45
2016-09-15T18:15:41.844Z,1000.46
2016-09-15T18:16:41.721Z,1000.5
2016-09-15T18:17:42.294Z,1000.54
2016-09-15T18:18:42.219Z,1000.5
2016-09-15T18:19:42.083Z,1000.52
2016-09-15T18:20:42.723Z,1000.53
2016-09-15T18:21:42.282Z,1000.49
2016-09-15T18:22:41.814Z,1000.51
2016-09-15T18:23:42.353Z,1000.51
2016-09-15T18:24:42.438Z,1000.53
2016-09-15T18:25:42.015Z,1000.55
2016-09-15T18:26:41.951Z,1000.56
2016-09-15T18:27:41.816Z,1000.52
2016-09-15T18:28:42.030Z,1000.55
2016-09-15T18:29:42.006Z,1000.57
2016-09-15T18:30:42.891Z,1000.55
2016-09-15T18:31:42.394Z,1000.55
2016-09-15T18:32:42.051Z,1000.56
2016-09-15T18:33:42.250Z,1000.59
2016-09-15T18:34:42.694Z,1000.59
2016-09-15T18:35:42.643Z,1000.6
2016-09-15T18:36:42.374Z,1000.6
2016-09-15T18:37:42.417Z,1000.57
2016-09-15T18:38:42.853Z,1000.56
2016-09-15T18:39:42.578Z,1000.54
2016-09-15T18:40:42.434Z,1000.56
2016-09-15T18:41:43.170Z,1000.55
2016-09-15T18:42:42.740Z,1000.56
2016-09-15T18:43:42.738Z,1000.58
2016-09-15T18:44:42.720Z,1000.6
2016-09-15T18:45:42.621Z,1000.59
2016-09-15T18:46:42.727Z,1000.64
2016-09-15T18:47:43.370Z,1000.58
2016-09-15T18:48:43.009Z,1000.59
2016-09-15T18:49:42.647Z,1000.62
2016-09-15T18:50:42.920Z,1000.57